sensor_id;sensor_type;location;lat;lon;timestamp;P1;durP1;ratioP1;P2;durP2;ratioP2
34541;SDS011;20784;51.332;12.410;2023-03-20T00:01:19;3.58;;;2.20;;
34541;SDS011;20784;51.332;12.410;2023-03-20T00:03:52;3.97;;;2.20;;
34541;SDS011;20784;51.332;12.410;2023-03-20T00:06:27;4.70;;;2.75;;
34541;SDS011;20784;51.332;12.410;2023-03-20T00:08:53;3.47;;;2.40;;
34541;SDS011;20784;51.332;12.410;2023-03-20T00:13:59;3.65;;;2.92;;
34541;SDS011;20784;51.332;12.410;2023-03-20T00:16:28;3.17;;;2.67;;
34541;SDS011;20784;51.332;12.410;2023-03-20T00:18:59;3.85;;;2.50;;
34541;SDS011;20784;51.332;12.410;2023-03-20T00:21:25;4.90;;;3.00;;
34541;SDS011;20784;51.332;12.410;2023-03-20T00:23:51;3.88;;;2.65;;
34541;SDS011;20784;51.332;12.410;2023-03-20T00:26:20;6.30;;;2.78;;
34541;SDS011;20784;51.332;12.410;2023-03-20T00:28:50;4.88;;;2.67;;
34541;SDS011;20784;51.332;12.410;2023-03-20T00:31:23;3.70;;;2.53;;
34541;SDS011;20784;51.332;12.410;2023-03-20T00:33:54;4.68;;;2.90;;
34541;SDS011;20784;51.332;12.410;2023-03-20T00:36:22;5.13;;;2.92;;
34541;SDS011;20784;51.332;12.410;2023-03-20T00:38:48;5.38;;;3.13;;
34541;SDS011;20784;51.332;12.410;2023-03-20T00:41:25;4.88;;;3.15;;
34541;SDS011;20784;51.332;12.410;2023-03-20T00:44:19;5.53;;;2.80;;
34541;SDS011;20784;51.332;12.410;2023-03-20T00:46:50;3.92;;;2.83;;
34541;SDS011;20784;51.332;12.410;2023-03-20T00:49:22;4.35;;;3.20;;
34541;SDS011;20784;51.332;12.410;2023-03-20T00:51:53;5.50;;;3.15;;
34541;SDS011;20784;51.332;12.410;2023-03-20T00:54:19;4.25;;;2.97;;
34541;SDS011;20784;51.332;12.410;2023-03-20T00:59:20;4.70;;;3.20;;
34541;SDS011;20784;51.332;12.410;2023-03-20T01:01:50;3.78;;;2.60;;
34541;SDS011;20784;51.332;12.410;2023-03-20T01:04:17;5.32;;;3.03;;
34541;SDS011;20784;51.332;12.410;2023-03-20T01:06:46;3.35;;;2.67;;
34541;SDS011;20784;51.332;12.410;2023-03-20T01:09:12;4.38;;;2.75;;
34541;SDS011;20784;51.332;12.410;2023-03-20T01:11:38;6.38;;;3.25;;
34541;SDS011;20784;51.332;12.410;2023-03-20T01:14:12;4.78;;;3.10;;
34541;SDS011;20784;51.332;12.410;2023-03-20T01:16:39;3.63;;;2.58;;
34541;SDS011;20784;51.332;12.410;2023-03-20T01:19:05;4.93;;;2.80;;
34541;SDS011;20784;51.332;12.410;2023-03-20T01:21:37;4.88;;;3.03;;
34541;SDS011;20784;51.332;12.410;2023-03-20T01:24:03;4.47;;;3.28;;
34541;SDS011;20784;51.332;12.410;2023-03-20T01:29:03;4.47;;;3.13;;
34541;SDS011;20784;51.332;12.410;2023-03-20T01:31:36;3.95;;;2.70;;
34541;SDS011;20784;51.332;12.410;2023-03-20T01:34:02;4.15;;;2.72;;
34541;SDS011;20784;51.332;12.410;2023-03-20T01:36:27;4.57;;;3.03;;
34541;SDS011;20784;51.332;12.410;2023-03-20T01:38:56;3.25;;;2.80;;
34541;SDS011;20784;51.332;12.410;2023-03-20T01:41:23;6.10;;;3.33;;
34541;SDS011;20784;51.332;12.410;2023-03-20T01:43:52;6.40;;;3.22;;
34541;SDS011;20784;51.332;12.410;2023-03-20T01:49:00;3.47;;;2.78;;
34541;SDS011;20784;51.332;12.410;2023-03-20T01:51:32;5.70;;;3.20;;
34541;SDS011;20784;51.332;12.410;2023-03-20T01:54:12;5.10;;;2.80;;
34541;SDS011;20784;51.332;12.410;2023-03-20T01:56:46;3.70;;;3.15;;
34541;SDS011;20784;51.332;12.410;2023-03-20T01:59:16;8.47;;;3.67;;
34541;SDS011;20784;51.332;12.410;2023-03-20T02:01:58;5.32;;;3.35;;
34541;SDS011;20784;51.332;12.410;2023-03-20T02:04:29;5.22;;;3.33;;
34541;SDS011;20784;51.332;12.410;2023-03-20T02:07:00;4.28;;;2.90;;
34541;SDS011;20784;51.332;12.410;2023-03-20T02:09:27;6.13;;;3.22;;
34541;SDS011;20784;51.332;12.410;2023-03-20T02:11:55;3.40;;;2.95;;
34541;SDS011;20784;51.332;12.410;2023-03-20T02:14:24;3.40;;;2.88;;
34541;SDS011;20784;51.332;12.410;2023-03-20T02:16:55;7.45;;;3.17;;
34541;SDS011;20784;51.332;12.410;2023-03-20T02:30:49;8.73;;;3.45;;
34541;SDS011;20784;51.332;12.410;2023-03-20T02:33:45;5.50;;;3.28;;
34541;SDS011;20784;51.332;12.410;2023-03-20T02:39:12;7.20;;;3.75;;
34541;SDS011;20784;51.332;12.410;2023-03-20T02:47:52;3.47;;;3.10;;
34541;SDS011;20784;51.332;12.410;2023-03-20T02:50:46;4.43;;;2.90;;
34541;SDS011;20784;51.332;12.410;2023-03-20T02:53:27;4.25;;;3.40;;
34541;SDS011;20784;51.332;12.410;2023-03-20T02:56:24;4.88;;;3.55;;
34541;SDS011;20784;51.332;12.410;2023-03-20T03:01:53;4.90;;;3.38;;
34541;SDS011;20784;51.332;12.410;2023-03-20T03:04:26;8.25;;;3.65;;
34541;SDS011;20784;51.332;12.410;2023-03-20T03:06:55;4.95;;;3.40;;
34541;SDS011;20784;51.332;12.410;2023-03-20T03:12:02;6.55;;;3.22;;
34541;SDS011;20784;51.332;12.410;2023-03-20T03:14:36;3.97;;;3.20;;
34541;SDS011;20784;51.332;12.410;2023-03-20T03:17:16;5.97;;;3.50;;
34541;SDS011;20784;51.332;12.410;2023-03-20T03:19:45;6.60;;;3.78;;
34541;SDS011;20784;51.332;12.410;2023-03-20T03:22:17;7.85;;;3.95;;
34541;SDS011;20784;51.332;12.410;2023-03-20T03:24:45;8.45;;;3.42;;
34541;SDS011;20784;51.332;12.410;2023-03-20T03:27:22;5.22;;;3.60;;
34541;SDS011;20784;51.332;12.410;2023-03-20T03:30:09;11.88;;;4.22;;
34541;SDS011;20784;51.332;12.410;2023-03-20T03:32:48;7.50;;;3.90;;
34541;SDS011;20784;51.332;12.410;2023-03-20T03:35:21;5.10;;;4.00;;
34541;SDS011;20784;51.332;12.410;2023-03-20T03:37:59;6.03;;;4.13;;
34541;SDS011;20784;51.332;12.410;2023-03-20T03:40:43;5.93;;;3.83;;
34541;SDS011;20784;51.332;12.410;2023-03-20T03:43:18;8.55;;;4.60;;
34541;SDS011;20784;51.332;12.410;2023-03-20T03:46:03;6.03;;;4.03;;
34541;SDS011;20784;51.332;12.410;2023-03-20T03:48:59;7.70;;;4.30;;
34541;SDS011;20784;51.332;12.410;2023-03-20T03:51:28;5.75;;;4.10;;
34541;SDS011;20784;51.332;12.410;2023-03-20T03:53:58;7.95;;;4.47;;
34541;SDS011;20784;51.332;12.410;2023-03-20T03:56:28;7.10;;;4.53;;
34541;SDS011;20784;51.332;12.410;2023-03-20T03:58:59;6.10;;;3.70;;
34541;SDS011;20784;51.332;12.410;2023-03-20T04:01:31;5.93;;;4.43;;
34541;SDS011;20784;51.332;12.410;2023-03-20T04:03:59;6.73;;;4.43;;
34541;SDS011;20784;51.332;12.410;2023-03-20T04:06:27;6.07;;;4.50;;
34541;SDS011;20784;51.332;12.410;2023-03-20T04:08:53;6.85;;;4.38;;
34541;SDS011;20784;51.332;12.410;2023-03-20T04:11:20;7.10;;;4.40;;
34541;SDS011;20784;51.332;12.410;2023-03-20T04:13:48;7.00;;;4.25;;
34541;SDS011;20784;51.332;12.410;2023-03-20T04:16:19;7.13;;;4.55;;
34541;SDS011;20784;51.332;12.410;2023-03-20T04:18:45;5.85;;;4.43;;
34541;SDS011;20784;51.332;12.410;2023-03-20T04:21:11;7.78;;;4.82;;
34541;SDS011;20784;51.332;12.410;2023-03-20T04:23:37;7.63;;;4.68;;
34541;SDS011;20784;51.332;12.410;2023-03-20T04:26:03;12.27;;;4.88;;
34541;SDS011;20784;51.332;12.410;2023-03-20T04:28:30;7.72;;;4.97;;
34541;SDS011;20784;51.332;12.410;2023-03-20T04:30:59;7.72;;;5.60;;
34541;SDS011;20784;51.332;12.410;2023-03-20T04:33:25;6.65;;;5.47;;
34541;SDS011;20784;51.332;12.410;2023-03-20T04:35:52;9.90;;;6.50;;
34541;SDS011;20784;51.332;12.410;2023-03-20T04:38:18;9.63;;;6.25;;
34541;SDS011;20784;51.332;12.410;2023-03-20T04:40:50;9.10;;;6.13;;
34541;SDS011;20784;51.332;12.410;2023-03-20T04:43:16;8.95;;;6.80;;
34541;SDS011;20784;51.332;12.410;2023-03-20T04:45:42;8.18;;;6.30;;
34541;SDS011;20784;51.332;12.410;2023-03-20T04:48:08;15.45;;;6.75;;
34541;SDS011;20784;51.332;12.410;2023-03-20T04:50:33;9.50;;;6.72;;
34541;SDS011;20784;51.332;12.410;2023-03-20T04:52:59;9.80;;;6.35;;
34541;SDS011;20784;51.332;12.410;2023-03-20T04:55:25;11.30;;;6.25;;
34541;SDS011;20784;51.332;12.410;2023-03-20T04:57:50;7.22;;;6.03;;
34541;SDS011;20784;51.332;12.410;2023-03-20T05:00:16;12.07;;;6.45;;
34541;SDS011;20784;51.332;12.410;2023-03-20T05:02:42;9.55;;;6.30;;
34541;SDS011;20784;51.332;12.410;2023-03-20T05:05:08;7.03;;;6.13;;
34541;SDS011;20784;51.332;12.410;2023-03-20T05:07:34;8.38;;;6.40;;
34541;SDS011;20784;51.332;12.410;2023-03-20T05:10:00;11.52;;;7.32;;
34541;SDS011;20784;51.332;12.410;2023-03-20T05:12:26;8.60;;;6.68;;
34541;SDS011;20784;51.332;12.410;2023-03-20T05:14:52;7.82;;;5.95;;
34541;SDS011;20784;51.332;12.410;2023-03-20T05:17:21;7.95;;;6.45;;
34541;SDS011;20784;51.332;12.410;2023-03-20T05:19:47;9.50;;;6.25;;
34541;SDS011;20784;51.332;12.410;2023-03-20T05:22:18;7.65;;;5.47;;
34541;SDS011;20784;51.332;12.410;2023-03-20T05:24:47;9.60;;;5.90;;
34541;SDS011;20784;51.332;12.410;2023-03-20T05:27:13;6.07;;;5.13;;
34541;SDS011;20784;51.332;12.410;2023-03-20T05:29:40;10.27;;;5.95;;
34541;SDS011;20784;51.332;12.410;2023-03-20T05:32:05;10.18;;;5.75;;
34541;SDS011;20784;51.332;12.410;2023-03-20T05:34:31;9.60;;;5.55;;
34541;SDS011;20784;51.332;12.410;2023-03-20T05:36:57;7.47;;;5.50;;
34541;SDS011;20784;51.332;12.410;2023-03-20T05:39:22;6.57;;;4.70;;
34541;SDS011;20784;51.332;12.410;2023-03-20T05:41:51;8.10;;;5.80;;
34541;SDS011;20784;51.332;12.410;2023-03-20T05:44:17;7.25;;;5.65;;
34541;SDS011;20784;51.332;12.410;2023-03-20T05:46:43;7.43;;;5.50;;
34541;SDS011;20784;51.332;12.410;2023-03-20T05:49:08;9.38;;;5.25;;
34541;SDS011;20784;51.332;12.410;2023-03-20T05:51:34;7.32;;;5.88;;
34541;SDS011;20784;51.332;12.410;2023-03-20T05:54:00;7.28;;;6.25;;
34541;SDS011;20784;51.332;12.410;2023-03-20T05:56:25;27.63;;;18.63;;
34541;SDS011;20784;51.332;12.410;2023-03-20T05:58:51;18.90;;;13.20;;
34541;SDS011;20784;51.332;12.410;2023-03-20T06:01:16;20.05;;;13.40;;
34541;SDS011;20784;51.332;12.410;2023-03-20T06:03:45;15.52;;;10.63;;
34541;SDS011;20784;51.332;12.410;2023-03-20T06:06:14;24.30;;;15.25;;
34541;SDS011;20784;51.332;12.410;2023-03-20T06:08:41;14.63;;;9.63;;
34541;SDS011;20784;51.332;12.410;2023-03-20T06:11:07;7.95;;;5.47;;
34541;SDS011;20784;51.332;12.410;2023-03-20T06:13:32;9.77;;;5.18;;
34541;SDS011;20784;51.332;12.410;2023-03-20T06:15:59;8.13;;;5.68;;
34541;SDS011;20784;51.332;12.410;2023-03-20T06:18:25;9.85;;;5.68;;
34541;SDS011;20784;51.332;12.410;2023-03-20T06:20:54;7.13;;;5.88;;
34541;SDS011;20784;51.332;12.410;2023-03-20T06:23:21;8.68;;;5.97;;
34541;SDS011;20784;51.332;12.410;2023-03-20T06:25:46;8.45;;;6.05;;
34541;SDS011;20784;51.332;12.410;2023-03-20T06:28:13;12.85;;;7.10;;
34541;SDS011;20784;51.332;12.410;2023-03-20T06:30:41;10.05;;;6.78;;
34541;SDS011;20784;51.332;12.410;2023-03-20T06:33:08;14.93;;;7.28;;
34541;SDS011;20784;51.332;12.410;2023-03-20T06:35:33;13.13;;;7.43;;
34541;SDS011;20784;51.332;12.410;2023-03-20T06:37:59;11.90;;;7.43;;
34541;SDS011;20784;51.332;12.410;2023-03-20T06:40:25;13.75;;;7.50;;
34541;SDS011;20784;51.332;12.410;2023-03-20T06:42:54;12.73;;;7.25;;
34541;SDS011;20784;51.332;12.410;2023-03-20T06:45:20;13.88;;;7.93;;
34541;SDS011;20784;51.332;12.410;2023-03-20T06:47:46;12.43;;;7.43;;
34541;SDS011;20784;51.332;12.410;2023-03-20T06:50:12;9.82;;;6.82;;
34541;SDS011;20784;51.332;12.410;2023-03-20T06:52:38;12.45;;;7.05;;
34541;SDS011;20784;51.332;12.410;2023-03-20T06:55:04;10.18;;;6.60;;
34541;SDS011;20784;51.332;12.410;2023-03-20T06:57:30;12.05;;;6.88;;
34541;SDS011;20784;51.332;12.410;2023-03-20T06:59:57;10.65;;;7.35;;
34541;SDS011;20784;51.332;12.410;2023-03-20T07:02:22;8.35;;;6.35;;
34541;SDS011;20784;51.332;12.410;2023-03-20T07:04:48;16.83;;;6.85;;
34541;SDS011;20784;51.332;12.410;2023-03-20T07:07:14;15.38;;;7.15;;
34541;SDS011;20784;51.332;12.410;2023-03-20T07:09:41;17.85;;;7.30;;
34541;SDS011;20784;51.332;12.410;2023-03-20T07:12:13;14.70;;;7.45;;
34541;SDS011;20784;51.332;12.410;2023-03-20T07:14:41;15.48;;;7.78;;
34541;SDS011;20784;51.332;12.410;2023-03-20T07:17:07;17.33;;;8.73;;
34541;SDS011;20784;51.332;12.410;2023-03-20T07:19:36;13.43;;;8.93;;
34541;SDS011;20784;51.332;12.410;2023-03-20T07:22:03;21.23;;;10.07;;
34541;SDS011;20784;51.332;12.410;2023-03-20T07:24:31;20.98;;;12.00;;
34541;SDS011;20784;51.332;12.410;2023-03-20T07:26:57;19.27;;;11.85;;
34541;SDS011;20784;51.332;12.410;2023-03-20T07:29:23;16.23;;;12.18;;
34541;SDS011;20784;51.332;12.410;2023-03-20T07:31:48;22.35;;;12.70;;
34541;SDS011;20784;51.332;12.410;2023-03-20T07:34:14;18.20;;;13.40;;
34541;SDS011;20784;51.332;12.410;2023-03-20T07:36:40;21.38;;;14.00;;
34541;SDS011;20784;51.332;12.410;2023-03-20T07:39:07;22.75;;;14.77;;
34541;SDS011;20784;51.332;12.410;2023-03-20T07:41:33;23.52;;;15.82;;
34541;SDS011;20784;51.332;12.410;2023-03-20T07:43:58;23.02;;;15.88;;
34541;SDS011;20784;51.332;12.410;2023-03-20T07:46:24;31.33;;;17.92;;
34541;SDS011;20784;51.332;12.410;2023-03-20T07:48:50;35.67;;;21.17;;
34541;SDS011;20784;51.332;12.410;2023-03-20T07:51:16;37.58;;;21.95;;
34541;SDS011;20784;51.332;12.410;2023-03-20T07:53:41;39.13;;;23.02;;
34541;SDS011;20784;51.332;12.410;2023-03-20T07:56:07;39.92;;;21.83;;
34541;SDS011;20784;51.332;12.410;2023-03-20T07:58:33;34.25;;;22.38;;
34541;SDS011;20784;51.332;12.410;2023-03-20T08:01:00;41.53;;;22.83;;
34541;SDS011;20784;51.332;12.410;2023-03-20T08:03:27;41.47;;;23.85;;
34541;SDS011;20784;51.332;12.410;2023-03-20T08:05:53;37.88;;;23.83;;
34541;SDS011;20784;51.332;12.410;2023-03-20T08:08:19;50.40;;;25.85;;
34541;SDS011;20784;51.332;12.410;2023-03-20T08:10:45;42.08;;;26.05;;
34541;SDS011;20784;51.332;12.410;2023-03-20T08:13:11;42.28;;;27.70;;
34541;SDS011;20784;51.332;12.410;2023-03-20T08:15:37;49.15;;;28.15;;
34541;SDS011;20784;51.332;12.410;2023-03-20T08:18:02;43.70;;;27.08;;
34541;SDS011;20784;51.332;12.410;2023-03-20T08:20:28;44.65;;;27.25;;
34541;SDS011;20784;51.332;12.410;2023-03-20T08:22:55;40.90;;;27.50;;
34541;SDS011;20784;51.332;12.410;2023-03-20T08:25:23;46.13;;;27.40;;
34541;SDS011;20784;51.332;12.410;2023-03-20T08:27:48;45.72;;;27.50;;
34541;SDS011;20784;51.332;12.410;2023-03-20T08:30:17;44.00;;;27.08;;
34541;SDS011;20784;51.332;12.410;2023-03-20T08:32:46;41.58;;;26.52;;
34541;SDS011;20784;51.332;12.410;2023-03-20T08:35:12;43.58;;;27.58;;
34541;SDS011;20784;51.332;12.410;2023-03-20T08:37:40;44.90;;;27.17;;
34541;SDS011;20784;51.332;12.410;2023-03-20T08:40:05;43.72;;;27.88;;
34541;SDS011;20784;51.332;12.410;2023-03-20T08:42:31;43.65;;;27.00;;
34541;SDS011;20784;51.332;12.410;2023-03-20T08:44:57;41.38;;;27.58;;
34541;SDS011;20784;51.332;12.410;2023-03-20T08:47:22;39.53;;;26.52;;
34541;SDS011;20784;51.332;12.410;2023-03-20T08:49:48;42.33;;;28.17;;
34541;SDS011;20784;51.332;12.410;2023-03-20T08:52:14;48.88;;;28.98;;
34541;SDS011;20784;51.332;12.410;2023-03-20T08:54:40;46.85;;;30.05;;
34541;SDS011;20784;51.332;12.410;2023-03-20T08:57:06;48.72;;;30.58;;
34541;SDS011;20784;51.332;12.410;2023-03-20T08:59:31;52.80;;;30.73;;
34541;SDS011;20784;51.332;12.410;2023-03-20T09:01:57;48.70;;;30.27;;
34541;SDS011;20784;51.332;12.410;2023-03-20T09:04:22;53.38;;;31.15;;
34541;SDS011;20784;51.332;12.410;2023-03-20T09:06:49;45.92;;;30.45;;
34541;SDS011;20784;51.332;12.410;2023-03-20T09:09:15;48.88;;;30.50;;
34541;SDS011;20784;51.332;12.410;2023-03-20T09:11:44;50.88;;;31.98;;
34541;SDS011;20784;51.332;12.410;2023-03-20T09:14:09;57.50;;;31.95;;
34541;SDS011;20784;51.332;12.410;2023-03-20T09:16:35;53.65;;;30.83;;
34541;SDS011;20784;51.332;12.410;2023-03-20T09:19:01;51.17;;;30.80;;
34541;SDS011;20784;51.332;12.410;2023-03-20T09:21:27;57.13;;;32.20;;
34541;SDS011;20784;51.332;12.410;2023-03-20T09:23:53;53.28;;;32.80;;
34541;SDS011;20784;51.332;12.410;2023-03-20T09:26:18;51.05;;;33.58;;
34541;SDS011;20784;51.332;12.410;2023-03-20T09:28:47;61.80;;;33.85;;
34541;SDS011;20784;51.332;12.410;2023-03-20T09:31:13;55.78;;;32.33;;
34541;SDS011;20784;51.332;12.410;2023-03-20T09:33:39;56.95;;;33.70;;
34541;SDS011;20784;51.332;12.410;2023-03-20T09:36:04;52.30;;;31.88;;
34541;SDS011;20784;51.332;12.410;2023-03-20T09:38:32;52.80;;;32.50;;
34541;SDS011;20784;51.332;12.410;2023-03-20T09:40:58;63.30;;;33.05;;
34541;SDS011;20784;51.332;12.410;2023-03-20T09:43:46;52.85;;;33.17;;
34541;SDS011;20784;51.332;12.410;2023-03-20T09:49:26;51.67;;;32.20;;
34541;SDS011;20784;51.332;12.410;2023-03-20T09:52:08;57.22;;;33.72;;
34541;SDS011;20784;51.332;12.410;2023-03-20T09:54:54;57.55;;;33.38;;
34541;SDS011;20784;51.332;12.410;2023-03-20T09:57:24;54.28;;;32.03;;
34541;SDS011;20784;51.332;12.410;2023-03-20T09:59:56;56.33;;;33.00;;
34541;SDS011;20784;51.332;12.410;2023-03-20T10:02:35;57.03;;;33.03;;
34541;SDS011;20784;51.332;12.410;2023-03-20T10:05:13;49.15;;;31.50;;
34541;SDS011;20784;51.332;12.410;2023-03-20T10:07:54;51.90;;;32.70;;
34541;SDS011;20784;51.332;12.410;2023-03-20T10:10:26;59.80;;;33.15;;
34541;SDS011;20784;51.332;12.410;2023-03-20T10:13:01;55.95;;;32.97;;
34541;SDS011;20784;51.332;12.410;2023-03-20T10:18:22;57.30;;;33.47;;
34541;SDS011;20784;51.332;12.410;2023-03-20T10:21:09;60.55;;;33.55;;
34541;SDS011;20784;51.332;12.410;2023-03-20T10:23:48;61.72;;;34.90;;
34541;SDS011;20784;51.332;12.410;2023-03-20T10:26:33;63.50;;;35.05;;
34541;SDS011;20784;51.332;12.410;2023-03-20T10:29:00;66.47;;;36.33;;
34541;SDS011;20784;51.332;12.410;2023-03-20T10:31:46;65.72;;;36.55;;
34541;SDS011;20784;51.332;12.410;2023-03-20T10:34:34;67.82;;;36.45;;
34541;SDS011;20784;51.332;12.410;2023-03-20T10:37:21;62.47;;;36.65;;
34541;SDS011;20784;51.332;12.410;2023-03-20T10:40:18;64.40;;;36.08;;
34541;SDS011;20784;51.332;12.410;2023-03-20T10:42:59;71.07;;;36.65;;
34541;SDS011;20784;51.332;12.410;2023-03-20T10:45:33;66.60;;;36.47;;
34541;SDS011;20784;51.332;12.410;2023-03-20T10:48:00;65.95;;;35.97;;
34541;SDS011;20784;51.332;12.410;2023-03-20T10:50:37;62.55;;;35.53;;
34541;SDS011;20784;51.332;12.410;2023-03-20T10:53:09;64.90;;;37.10;;
34541;SDS011;20784;51.332;12.410;2023-03-20T10:55:53;63.63;;;35.42;;
34541;SDS011;20784;51.332;12.410;2023-03-20T10:58:22;60.67;;;35.70;;
34541;SDS011;20784;51.332;12.410;2023-03-20T11:00:50;62.67;;;36.78;;
34541;SDS011;20784;51.332;12.410;2023-03-20T11:03:23;66.55;;;37.20;;
34541;SDS011;20784;51.332;12.410;2023-03-20T11:08:32;58.70;;;33.33;;
34541;SDS011;20784;51.332;12.410;2023-03-20T11:11:01;58.35;;;34.88;;
34541;SDS011;20784;51.332;12.410;2023-03-20T11:16:09;63.05;;;34.67;;
34541;SDS011;20784;51.332;12.410;2023-03-20T11:18:41;55.45;;;32.67;;
34541;SDS011;20784;51.332;12.410;2023-03-20T11:21:09;54.50;;;33.38;;
34541;SDS011;20784;51.332;12.410;2023-03-20T11:23:39;62.75;;;33.78;;
34541;SDS011;20784;51.332;12.410;2023-03-20T11:26:09;54.55;;;33.72;;
34541;SDS011;20784;51.332;12.410;2023-03-20T11:28:40;58.15;;;34.47;;
34541;SDS011;20784;51.332;12.410;2023-03-20T11:34:09;63.35;;;36.97;;
34541;SDS011;20784;51.332;12.410;2023-03-20T11:41:52;61.22;;;35.17;;
34541;SDS011;20784;51.332;12.410;2023-03-20T11:44:20;64.57;;;36.45;;
34541;SDS011;20784;51.332;12.410;2023-03-20T11:46:53;67.47;;;37.47;;
34541;SDS011;20784;51.332;12.410;2023-03-20T11:49:23;57.65;;;36.03;;
34541;SDS011;20784;51.332;12.410;2023-03-20T11:52:01;59.95;;;37.42;;
34541;SDS011;20784;51.332;12.410;2023-03-20T11:54:38;57.15;;;33.88;;
34541;SDS011;20784;51.332;12.410;2023-03-20T12:00:25;60.40;;;36.88;;
34541;SDS011;20784;51.332;12.410;2023-03-20T12:06:07;61.38;;;36.85;;
34541;SDS011;20784;51.332;12.410;2023-03-20T12:09:18;60.33;;;36.37;;
34541;SDS011;20784;51.332;12.410;2023-03-20T12:11:51;55.75;;;33.53;;
34541;SDS011;20784;51.332;12.410;2023-03-20T12:14:51;53.10;;;33.53;;
34541;SDS011;20784;51.332;12.410;2023-03-20T12:23:08;47.38;;;29.17;;
34541;SDS011;20784;51.332;12.410;2023-03-20T12:25:39;47.47;;;29.58;;
34541;SDS011;20784;51.332;12.410;2023-03-20T12:34:02;47.38;;;30.73;;
34541;SDS011;20784;51.332;12.410;2023-03-20T12:36:44;47.20;;;29.48;;
34541;SDS011;20784;51.332;12.410;2023-03-20T12:39:19;46.22;;;28.83;;
34541;SDS011;20784;51.332;12.410;2023-03-20T13:03:40;45.85;;;24.17;;
34541;SDS011;20784;51.332;12.410;2023-03-20T13:11:59;35.10;;;21.92;;
34541;SDS011;20784;51.332;12.410;2023-03-20T13:14:51;42.80;;;23.65;;
34541;SDS011;20784;51.332;12.410;2023-03-20T13:17:39;41.45;;;23.20;;
34541;SDS011;20784;51.332;12.410;2023-03-20T13:20:28;41.70;;;24.27;;
34541;SDS011;20784;51.332;12.410;2023-03-20T13:39:42;32.30;;;20.65;;
34541;SDS011;20784;51.332;12.410;2023-03-20T13:42:23;34.67;;;21.60;;
34541;SDS011;20784;51.332;12.410;2023-03-20T13:45:00;32.45;;;20.35;;
34541;SDS011;20784;51.332;12.410;2023-03-20T13:47:31;30.17;;;20.25;;
34541;SDS011;20784;51.332;12.410;2023-03-20T13:53:00;26.30;;;18.92;;
34541;SDS011;20784;51.332;12.410;2023-03-20T13:55:44;28.58;;;17.95;;
34541;SDS011;20784;51.332;12.410;2023-03-20T13:58:31;29.92;;;20.50;;
34541;SDS011;20784;51.332;12.410;2023-03-20T14:04:08;26.67;;;17.80;;
34541;SDS011;20784;51.332;12.410;2023-03-20T14:06:44;29.13;;;18.20;;
34541;SDS011;20784;51.332;12.410;2023-03-20T14:09:29;31.00;;;16.92;;
34541;SDS011;20784;51.332;12.410;2023-03-20T14:12:06;24.58;;;17.15;;
34541;SDS011;20784;51.332;12.410;2023-03-20T14:17:20;24.45;;;17.42;;
34541;SDS011;20784;51.332;12.410;2023-03-20T14:19:52;29.98;;;17.40;;
34541;SDS011;20784;51.332;12.410;2023-03-20T14:22:37;27.15;;;16.92;;
34541;SDS011;20784;51.332;12.410;2023-03-20T14:25:05;29.13;;;17.60;;
34541;SDS011;20784;51.332;12.410;2023-03-20T14:35:40;24.73;;;16.85;;
34541;SDS011;20784;51.332;12.410;2023-03-20T14:41:23;24.00;;;15.68;;
34541;SDS011;20784;51.332;12.410;2023-03-20T14:54:54;22.48;;;15.63;;
34541;SDS011;20784;51.332;12.410;2023-03-20T14:57:29;25.13;;;16.65;;
34541;SDS011;20784;51.332;12.410;2023-03-20T14:59:57;26.40;;;16.73;;
34541;SDS011;20784;51.332;12.410;2023-03-20T15:02:27;24.88;;;16.55;;
34541;SDS011;20784;51.332;12.410;2023-03-20T15:04:59;25.73;;;16.88;;
34541;SDS011;20784;51.332;12.410;2023-03-20T15:07:28;26.52;;;17.33;;
34541;SDS011;20784;51.332;12.410;2023-03-20T15:09:59;26.42;;;16.95;;
34541;SDS011;20784;51.332;12.410;2023-03-20T15:12:27;25.88;;;16.98;;
34541;SDS011;20784;51.332;12.410;2023-03-20T15:15:01;27.52;;;15.68;;
34541;SDS011;20784;51.332;12.410;2023-03-20T15:17:43;23.98;;;16.15;;
34541;SDS011;20784;51.332;12.410;2023-03-20T15:20:14;24.45;;;15.88;;
34541;SDS011;20784;51.332;12.410;2023-03-20T15:22:46;27.50;;;15.77;;
34541;SDS011;20784;51.332;12.410;2023-03-20T15:25:21;22.25;;;15.07;;
34541;SDS011;20784;51.332;12.410;2023-03-20T15:30:20;24.13;;;16.17;;
34541;SDS011;20784;51.332;12.410;2023-03-20T15:32:47;22.30;;;15.82;;
34541;SDS011;20784;51.332;12.410;2023-03-20T15:35:18;23.85;;;15.70;;
34541;SDS011;20784;51.332;12.410;2023-03-20T15:37:47;27.63;;;16.67;;
34541;SDS011;20784;51.332;12.410;2023-03-20T15:40:24;23.63;;;15.93;;
34541;SDS011;20784;51.332;12.410;2023-03-20T15:42:58;25.23;;;16.58;;
34541;SDS011;20784;51.332;12.410;2023-03-20T15:45:39;25.75;;;16.23;;
34541;SDS011;20784;51.332;12.410;2023-03-20T15:48:13;26.50;;;17.40;;
34541;SDS011;20784;51.332;12.410;2023-03-20T15:50:42;29.70;;;17.95;;
34541;SDS011;20784;51.332;12.410;2023-03-20T15:53:15;24.67;;;16.80;;
34541;SDS011;20784;51.332;12.410;2023-03-20T15:56:05;30.15;;;18.42;;
34541;SDS011;20784;51.332;12.410;2023-03-20T15:58:33;32.40;;;18.58;;
34541;SDS011;20784;51.332;12.410;2023-03-20T16:01:00;29.23;;;19.30;;
34541;SDS011;20784;51.332;12.410;2023-03-20T16:03:27;34.90;;;19.60;;
34541;SDS011;20784;51.332;12.410;2023-03-20T16:06:02;27.77;;;18.63;;
34541;SDS011;20784;51.332;12.410;2023-03-20T16:08:36;28.92;;;17.65;;
34541;SDS011;20784;51.332;12.410;2023-03-20T16:11:40;29.77;;;17.58;;
34541;SDS011;20784;51.332;12.410;2023-03-20T16:14:19;33.92;;;22.52;;
34541;SDS011;20784;51.332;12.410;2023-03-20T16:16:55;26.08;;;16.80;;
34541;SDS011;20784;51.332;12.410;2023-03-20T16:19:26;25.23;;;17.07;;
34541;SDS011;20784;51.332;12.410;2023-03-20T16:24:53;23.15;;;14.25;;
34541;SDS011;20784;51.332;12.410;2023-03-20T16:27:54;21.58;;;12.98;;
34541;SDS011;20784;51.332;12.410;2023-03-20T16:30:15;19.15;;;11.57;;
34541;SDS011;20784;51.332;12.410;2023-03-20T16:32:44;19.15;;;12.15;;
34541;SDS011;20784;51.332;12.410;2023-03-20T16:35:15;19.33;;;11.32;;
34541;SDS011;20784;51.332;12.410;2023-03-20T16:37:52;22.00;;;12.60;;
34541;SDS011;20784;51.332;12.410;2023-03-20T16:40:32;19.52;;;12.50;;
34541;SDS011;20784;51.332;12.410;2023-03-20T16:43:05;18.63;;;11.48;;
34541;SDS011;20784;51.332;12.410;2023-03-20T16:45:37;18.83;;;11.68;;
34541;SDS011;20784;51.332;12.410;2023-03-20T16:50:37;18.48;;;12.63;;
34541;SDS011;20784;51.332;12.410;2023-03-20T16:53:09;18.05;;;12.15;;
34541;SDS011;20784;51.332;12.410;2023-03-20T16:55:40;19.60;;;12.27;;
34541;SDS011;20784;51.332;12.410;2023-03-20T16:58:13;23.38;;;15.00;;
34541;SDS011;20784;51.332;12.410;2023-03-20T17:00:51;20.58;;;13.15;;
34541;SDS011;20784;51.332;12.410;2023-03-20T17:03:25;28.73;;;15.35;;
34541;SDS011;20784;51.332;12.410;2023-03-20T17:11:08;20.70;;;12.68;;
34541;SDS011;20784;51.332;12.410;2023-03-20T17:13:37;22.17;;;13.25;;
34541;SDS011;20784;51.332;12.410;2023-03-20T17:16:18;23.83;;;14.00;;
34541;SDS011;20784;51.332;12.410;2023-03-20T17:19:04;55.83;;;38.63;;
34541;SDS011;20784;51.332;12.410;2023-03-20T17:21:34;24.00;;;14.65;;
34541;SDS011;20784;51.332;12.410;2023-03-20T17:24:08;26.08;;;14.77;;